sensor_id;sensor_type;location;lat;lon;timestamp;pressure;altitude;pressure_sealevel;temperature;humidity
20656;BME280;10487;53.320;8.672;2023-04-29T00:00:00;100889.09;;;7.85;53.93
20656;BME280;10487;53.320;8.672;2023-04-29T00:03:02;100892.59;;;7.85;54.10
20656;BME280;10487;53.320;8.672;2023-04-29T00:06:04;100902.41;;;7.85;53.98
20656;BME280;10487;53.320;8.672;2023-04-29T00:09:06;100906.75;;;7.86;53.91
20656;BME280;10487;53.320;8.672;2023-04-29T00:12:07;100905.81;;;7.87;54.00
20656;BME280;10487;53.320;8.672;2023-04-29T00:15:10;100905.81;;;7.87;54.19
20656;BME280;10487;53.320;8.672;2023-04-29T00:18:12;100911.19;;;7.85;53.97
20656;BME280;10487;53.320;8.672;2023-04-29T00:21:14;100916.63;;;7.84;54.02
20656;BME280;10487;53.320;8.672;2023-04-29T00:24:16;100910.53;;;7.82;54.17
20656;BME280;10487;53.320;8.672;2023-04-29T00:27:18;100917.81;;;7.78;54.01
20656;BME280;10487;53.320;8.672;2023-04-29T00:30:19;100917.06;;;7.76;54.14
20656;BME280;10487;53.320;8.672;2023-04-29T00:33:21;100918.22;;;7.72;54.25
20656;BME280;10487;53.320;8.672;2023-04-29T00:36:22;100928.03;;;7.70;54.27
20656;BME280;10487;53.320;8.672;2023-04-29T00:39:24;100933.56;;;7.67;54.08
20656;BME280;10487;53.320;8.672;2023-04-29T00:42:26;100939.91;;;7.65;54.12
20656;BME280;10487;53.320;8.672;2023-04-29T00:45:29;100942.72;;;7.62;54.16
20656;BME280;10487;53.320;8.672;2023-04-29T00:48:31;100944.63;;;7.60;54.27
20656;BME280;10487;53.320;8.672;2023-04-29T00:51:34;100948.38;;;7.56;54.28
20656;BME280;10487;53.320;8.672;2023-04-29T00:54:37;100960.91;;;7.54;54.21
20656;BME280;10487;53.320;8.672;2023-04-29T00:57:39;100954.72;;;7.53;54.34
20656;BME280;10487;53.320;8.672;2023-04-29T01:00:41;100955.75;;;7.51;54.28
20656;BME280;10487;53.320;8.672;2023-04-29T01:03:44;100961.16;;;7.49;54.44
20656;BME280;10487;53.320;8.672;2023-04-29T01:10:06;100965.03;;;7.44;54.15
20656;BME280;10487;53.320;8.672;2023-04-29T01:13:43;100967.06;;;7.39;54.23
20656;BME280;10487;53.320;8.672;2023-04-29T01:16:58;100969.84;;;7.37;54.37
20656;BME280;10487;53.320;8.672;2023-04-29T01:20:00;100973.50;;;7.34;54.41
20656;BME280;10487;53.320;8.672;2023-04-29T01:23:03;100975.41;;;7.32;54.34
20656;BME280;10487;53.320;8.672;2023-04-29T01:26:04;100980.78;;;7.31;54.30
20656;BME280;10487;53.320;8.672;2023-04-29T01:32:42;100989.97;;;7.25;54.31
20656;BME280;10487;53.320;8.672;2023-04-29T01:39:20;100983.97;;;7.22;54.38
20656;BME280;10487;53.320;8.672;2023-04-29T01:42:34;100992.84;;;7.21;54.44
20656;BME280;10487;53.320;8.672;2023-04-29T01:45:38;100997.41;;;7.19;54.53
20656;BME280;10487;53.320;8.672;2023-04-29T01:48:41;101005.47;;;7.17;54.61
20656;BME280;10487;53.320;8.672;2023-04-29T01:51:43;101005.47;;;7.17;54.56
20656;BME280;10487;53.320;8.672;2023-04-29T01:54:45;101014.34;;;7.16;54.49
20656;BME280;10487;53.320;8.672;2023-04-29T01:57:47;101016.13;;;7.16;54.44
20656;BME280;10487;53.320;8.672;2023-04-29T02:00:49;101019.75;;;7.15;54.49
20656;BME280;10487;53.320;8.672;2023-04-29T02:03:50;101024.09;;;7.16;54.58
20656;BME280;10487;53.320;8.672;2023-04-29T02:06:52;101031.28;;;7.14;54.63
20656;BME280;10487;53.320;8.672;2023-04-29T02:09:54;101030.53;;;7.12;54.44
20656;BME280;10487;53.320;8.672;2023-04-29T02:12:56;101031.38;;;7.12;54.40
20656;BME280;10487;53.320;8.672;2023-04-29T02:16:06;101031.47;;;7.11;54.54
20656;BME280;10487;53.320;8.672;2023-04-29T02:19:07;101036.00;;;7.09;54.70
20656;BME280;10487;53.320;8.672;2023-04-29T02:22:09;101038.66;;;7.09;54.66
20656;BME280;10487;53.320;8.672;2023-04-29T02:25:12;101038.66;;;7.09;54.60
20656;BME280;10487;53.320;8.672;2023-04-29T02:28:15;101047.56;;;7.08;54.59
20656;BME280;10487;53.320;8.672;2023-04-29T02:31:16;101053.81;;;7.07;54.63
20656;BME280;10487;53.320;8.672;2023-04-29T02:34:18;101062.53;;;7.09;54.66
20656;BME280;10487;53.320;8.672;2023-04-29T02:37:19;101055.53;;;7.08;54.50
20656;BME280;10487;53.320;8.672;2023-04-29T02:40:21;101055.53;;;7.08;54.74
20656;BME280;10487;53.320;8.672;2023-04-29T02:43:25;101064.50;;;7.05;54.75
20656;BME280;10487;53.320;8.672;2023-04-29T02:46:31;101070.75;;;7.04;54.65
20656;BME280;10487;53.320;8.672;2023-04-29T02:49:33;101074.25;;;7.05;54.69
20656;BME280;10487;53.320;8.672;2023-04-29T02:52:35;101084.00;;;7.04;54.76
20656;BME280;10487;53.320;8.672;2023-04-29T02:55:37;101080.59;;;7.02;54.79
20656;BME280;10487;53.320;8.672;2023-04-29T02:58:38;101090.34;;;7.02;54.76
20656;BME280;10487;53.320;8.672;2023-04-29T03:01:40;101074.50;;;7.00;54.76
20656;BME280;10487;53.320;8.672;2023-04-29T03:04:42;101082.47;;;7.00;54.67
20656;BME280;10487;53.320;8.672;2023-04-29T03:07:43;101086.91;;;7.00;54.90
20656;BME280;10487;53.320;8.672;2023-04-29T03:10:45;101093.09;;;7.00;54.74
20656;BME280;10487;53.320;8.672;2023-04-29T03:13:46;101092.22;;;7.00;54.66
20656;BME280;10487;53.320;8.672;2023-04-29T03:16:48;101097.53;;;7.00;54.68
20656;BME280;10487;53.320;8.672;2023-04-29T03:19:50;101104.63;;;6.99;54.62
20656;BME280;10487;53.320;8.672;2023-04-29T03:22:53;101102.06;;;6.98;55.01
20656;BME280;10487;53.320;8.672;2023-04-29T03:25:55;101105.66;;;6.97;54.89
20656;BME280;10487;53.320;8.672;2023-04-29T03:28:57;101109.22;;;6.96;54.73
20656;BME280;10487;53.320;8.672;2023-04-29T03:31:59;101112.84;;;6.95;54.94
20656;BME280;10487;53.320;8.672;2023-04-29T03:35:01;101117.94;;;7.15;55.16
20656;BME280;10487;53.320;8.672;2023-04-29T03:38:02;101116.81;;;7.19;54.98
20656;BME280;10487;53.320;8.672;2023-04-29T03:41:04;101123.16;;;7.16;54.95
20656;BME280;10487;53.320;8.672;2023-04-29T03:44:06;101119.91;;;7.11;54.86
20656;BME280;10487;53.320;8.672;2023-04-29T03:47:07;101117.50;;;7.07;54.94
20656;BME280;10487;53.320;8.672;2023-04-29T03:50:09;101131.00;;;7.02;55.03
20656;BME280;10487;53.320;8.672;2023-04-29T03:53:11;101125.84;;;6.99;54.83
20656;BME280;10487;53.320;8.672;2023-04-29T03:56:13;101134.91;;;6.95;54.94
20656;BME280;10487;53.320;8.672;2023-04-29T03:59:17;101145.78;;;6.91;55.16
20656;BME280;10487;53.320;8.672;2023-04-29T04:02:18;101145.94;;;6.88;55.04
20656;BME280;10487;53.320;8.672;2023-04-29T04:05:20;101155.81;;;6.84;54.98
20656;BME280;10487;53.320;8.672;2023-04-29T04:08:25;101147.19;;;6.81;55.10
20656;BME280;10487;53.320;8.672;2023-04-29T04:11:27;101162.25;;;6.80;54.96
20656;BME280;10487;53.320;8.672;2023-04-29T04:14:29;101164.13;;;6.78;55.08
20656;BME280;10487;53.320;8.672;2023-04-29T04:17:30;101167.59;;;6.79;55.01
20656;BME280;10487;53.320;8.672;2023-04-29T04:20:35;101169.44;;;6.78;55.01
20656;BME280;10487;53.320;8.672;2023-04-29T04:23:37;101180.97;;;6.77;55.01
20656;BME280;10487;53.320;8.672;2023-04-29T04:26:42;101188.13;;;6.75;55.02
20656;BME280;10487;53.320;8.672;2023-04-29T04:29:44;101197.88;;;6.75;55.08
20656;BME280;10487;53.320;8.672;2023-04-29T04:32:45;101212.94;;;6.74;55.11
20656;BME280;10487;53.320;8.672;2023-04-29T04:35:47;101213.94;;;6.72;55.14
20656;BME280;10487;53.320;8.672;2023-04-29T04:38:48;101213.94;;;6.72;55.11
20656;BME280;10487;53.320;8.672;2023-04-29T04:41:50;101211.28;;;6.72;55.22
20656;BME280;10487;53.320;8.672;2023-04-29T04:44:52;101221.91;;;6.72;55.04
20656;BME280;10487;53.320;8.672;2023-04-29T04:47:54;101220.88;;;6.74;55.10
20656;BME280;10487;53.320;8.672;2023-04-29T04:50:56;101221.75;;;6.75;55.02
20656;BME280;10487;53.320;8.672;2023-04-29T04:53:57;101227.06;;;6.75;55.21
20656;BME280;10487;53.320;8.672;2023-04-29T04:56:59;101230.63;;;6.74;55.15
20656;BME280;10487;53.320;8.672;2023-04-29T05:00:00;101239.47;;;6.74;55.15
20656;BME280;10487;53.320;8.672;2023-04-29T05:03:02;101239.47;;;6.74;55.33
20656;BME280;10487;53.320;8.672;2023-04-29T05:06:04;101239.41;;;6.76;55.22
20656;BME280;10487;53.320;8.672;2023-04-29T05:09:06;101249.06;;;6.77;55.38
20656;BME280;10487;53.320;8.672;2023-04-29T05:12:07;101250.84;;;6.76;55.30
20656;BME280;10487;53.320;8.672;2023-04-29T05:15:09;101250.41;;;6.85;55.24
20656;BME280;10487;53.320;8.672;2023-04-29T05:18:11;101253.84;;;6.87;55.39
20656;BME280;10487;53.320;8.672;2023-04-29T05:21:13;101260.88;;;6.88;55.42
20656;BME280;10487;53.320;8.672;2023-04-29T05:24:18;101268.75;;;6.90;55.38
20656;BME280;10487;53.320;8.672;2023-04-29T05:27:19;101276.69;;;6.90;55.30
20656;BME280;10487;53.320;8.672;2023-04-29T05:30:21;101282.00;;;6.90;55.35
20656;BME280;10487;53.320;8.672;2023-04-29T05:33:23;101277.56;;;6.90;55.33
20656;BME280;10487;53.320;8.672;2023-04-29T05:36:25;101278.44;;;6.91;55.20
20656;BME280;10487;53.320;8.672;2023-04-29T05:39:28;101288.09;;;7.09;55.83
20656;BME280;10487;53.320;8.672;2023-04-29T05:42:29;101290.22;;;7.19;55.39
20656;BME280;10487;53.320;8.672;2023-04-29T05:45:31;101292.47;;;7.27;55.63
20656;BME280;10487;53.320;8.672;2023-04-29T05:48:33;101287.84;;;7.30;55.63
20656;BME280;10487;53.320;8.672;2023-04-29T05:51:34;101304.63;;;7.31;55.34
20656;BME280;10487;53.320;8.672;2023-04-29T05:54:36;101310.09;;;7.28;55.42
20656;BME280;10487;53.320;8.672;2023-04-29T05:57:38;101314.63;;;7.26;55.60
20656;BME280;10487;53.320;8.672;2023-04-29T06:00:39;101314.81;;;7.23;55.49
20656;BME280;10487;53.320;8.672;2023-04-29T06:03:41;101319.31;;;7.21;55.60
20656;BME280;10487;53.320;8.672;2023-04-29T06:06:43;101317.69;;;7.18;55.58
20656;BME280;10487;53.320;8.672;2023-04-29T06:09:44;101326.59;;;7.17;55.58
20656;BME280;10487;53.320;8.672;2023-04-29T06:12:46;101333.69;;;7.17;55.52
20656;BME280;10487;53.320;8.672;2023-04-29T06:15:51;101339.00;;;7.17;55.59
20656;BME280;10487;53.320;8.672;2023-04-29T06:18:52;101336.44;;;7.15;55.45
20656;BME280;10487;53.320;8.672;2023-04-29T06:21:54;101339.91;;;7.16;55.65
20656;BME280;10487;53.320;8.672;2023-04-29T06:24:56;101349.69;;;7.15;55.81
20656;BME280;10487;53.320;8.672;2023-04-29T06:27:57;101357.50;;;7.18;55.74
20656;BME280;10487;53.320;8.672;2023-04-29T06:30:59;101361.00;;;7.19;55.72
20656;BME280;10487;53.320;8.672;2023-04-29T06:34:01;101362.66;;;7.21;55.65
20656;BME280;10487;53.320;8.672;2023-04-29T06:37:02;101367.81;;;7.24;55.71
20656;BME280;10487;53.320;8.672;2023-04-29T06:40:05;101377.41;;;7.27;55.69
20656;BME280;10487;53.320;8.672;2023-04-29T06:43:07;101367.56;;;7.29;55.63
20656;BME280;10487;53.320;8.672;2023-04-29T06:46:09;101367.44;;;7.32;55.63
20656;BME280;10487;53.320;8.672;2023-04-29T06:49:11;101373.50;;;7.34;55.69
20656;BME280;10487;53.320;8.672;2023-04-29T06:52:13;101389.31;;;7.37;55.62
20656;BME280;10487;53.320;8.672;2023-04-29T06:55:15;101395.38;;;7.39;55.46
20656;BME280;10487;53.320;8.672;2023-04-29T06:58:18;101396.94;;;7.43;55.64
20656;BME280;10487;53.320;8.672;2023-04-29T07:01:20;101399.44;;;7.46;55.76
20656;BME280;10487;53.320;8.672;2023-04-29T07:04:22;101406.34;;;7.50;55.56
20656;BME280;10487;53.320;8.672;2023-04-29T07:07:24;101404.47;;;7.52;55.64
20656;BME280;10487;53.320;8.672;2023-04-29T07:10:25;101406.09;;;7.55;55.76
20656;BME280;10487;53.320;8.672;2023-04-29T07:13:28;101417.41;;;7.58;55.70
20656;BME280;10487;53.320;8.672;2023-04-29T07:16:29;101422.47;;;7.63;55.76
20656;BME280;10487;53.320;8.672;2023-04-29T07:19:31;101426.63;;;7.68;55.72
20656;BME280;10487;53.320;8.672;2023-04-29T07:22:33;101424.59;;;7.73;55.78
20656;BME280;10487;53.320;8.672;2023-04-29T07:25:35;101437.59;;;7.79;55.55
20656;BME280;10487;53.320;8.672;2023-04-29T07:28:37;101439.13;;;7.83;55.69
20656;BME280;10487;53.320;8.672;2023-04-29T07:31:38;101446.88;;;7.88;55.65
20656;BME280;10487;53.320;8.672;2023-04-29T07:34:40;101443.13;;;7.92;55.50
20656;BME280;10487;53.320;8.672;2023-04-29T07:37:41;101454.44;;;7.95;55.50
20656;BME280;10487;53.320;8.672;2023-04-29T07:40:47;101457.72;;;8.00;55.48
20656;BME280;10487;53.320;8.672;2023-04-29T07:43:48;101459.31;;;8.05;55.49
20656;BME280;10487;53.320;8.672;2023-04-29T07:46:50;101460.78;;;8.10;55.66
20656;BME280;10487;53.320;8.672;2023-04-29T07:49:51;101469.25;;;8.18;55.53
20656;BME280;10487;53.320;8.672;2023-04-29T07:52:53;101469.75;;;8.25;55.49
20656;BME280;10487;53.320;8.672;2023-04-29T07:55:55;101471.97;;;8.34;55.53
20656;BME280;10487;53.320;8.672;2023-04-29T07:58:58;101474.13;;;8.43;55.55
20656;BME280;10487;53.320;8.672;2023-04-29T08:02:00;101475.50;;;8.50;55.55
20656;BME280;10487;53.320;8.672;2023-04-29T08:05:02;101476.88;;;8.57;55.55
20656;BME280;10487;53.320;8.672;2023-04-29T08:08:05;101483.53;;;8.66;55.53
20656;BME280;10487;53.320;8.672;2023-04-29T08:11:07;101484.50;;;8.80;55.52
20656;BME280;10487;53.320;8.672;2023-04-29T08:14:08;101485.19;;;8.99;55.47
20656;BME280;10487;53.320;8.672;2023-04-29T08:17:10;101491.22;;;9.18;55.36
20656;BME280;10487;53.320;8.672;2023-04-29T08:20:12;101488.34;;;9.39;55.29
20656;BME280;10487;53.320;8.672;2023-04-29T08:23:14;101490.03;;;9.55;55.17
20656;BME280;10487;53.320;8.672;2023-04-29T08:26:16;101488.88;;;9.75;55.08
20656;BME280;10487;53.320;8.672;2023-04-29T08:29:18;101495.78;;;9.93;54.87
20656;BME280;10487;53.320;8.672;2023-04-29T08:32:19;101504.59;;;10.09;54.88
20656;BME280;10487;53.320;8.672;2023-04-29T08:35:21;101500.06;;;10.25;54.85
20656;BME280;10487;53.320;8.672;2023-04-29T08:38:23;101509.69;;;10.42;54.76
20656;BME280;10487;53.320;8.672;2023-04-29T08:41:25;101507.06;;;10.56;54.68
20656;BME280;10487;53.320;8.672;2023-04-29T08:44:27;101511.56;;;10.70;54.76
20656;BME280;10487;53.320;8.672;2023-04-29T08:47:31;101521.19;;;10.86;54.55
20656;BME280;10487;53.320;8.672;2023-04-29T08:50:37;101525.56;;;11.01;54.68
20656;BME280;10487;53.320;8.672;2023-04-29T08:53:40;101528.88;;;11.19;54.59
20656;BME280;10487;53.320;8.672;2023-04-29T08:56:45;101533.06;;;11.37;54.40
20656;BME280;10487;53.320;8.672;2023-04-29T08:59:47;101532.25;;;11.49;54.40
20656;BME280;10487;53.320;8.672;2023-04-29T09:02:50;101531.88;;;11.55;54.40
20656;BME280;10487;53.320;8.672;2023-04-29T09:05:53;101532.22;;;11.63;54.46
20656;BME280;10487;53.320;8.672;2023-04-29T09:08:58;101539.63;;;11.72;54.21
20656;BME280;10487;53.320;8.672;2023-04-29T09:11:59;101538.94;;;11.83;54.00
20656;BME280;10487;53.320;8.672;2023-04-29T09:15:02;101539.91;;;11.95;53.99
20656;BME280;10487;53.320;8.672;2023-04-29T09:18:03;101542.75;;;12.06;53.96
20656;BME280;10487;53.320;8.672;2023-04-29T09:24:27;101546.00;;;12.23;53.84
20656;BME280;10487;53.320;8.672;2023-04-29T09:27:28;101554.03;;;12.36;53.69
20656;BME280;10487;53.320;8.672;2023-04-29T09:30:30;101562.75;;;12.52;53.62
20656;BME280;10487;53.320;8.672;2023-04-29T09:33:48;101565.13;;;12.69;53.96
20656;BME280;10487;53.320;8.672;2023-04-29T09:36:51;101560.41;;;12.85;53.43
20656;BME280;10487;53.320;8.672;2023-04-29T09:39:57;101565.22;;;13.05;53.37
20656;BME280;10487;53.320;8.672;2023-04-29T09:42:59;101570.31;;;13.21;53.30
20656;BME280;10487;53.320;8.672;2023-04-29T09:46:01;101563.84;;;13.36;53.02
20656;BME280;10487;53.320;8.672;2023-04-29T09:49:03;101572.63;;;13.51;52.83
20656;BME280;10487;53.320;8.672;2023-04-29T09:52:11;101574.19;;;13.66;52.97
20656;BME280;10487;53.320;8.672;2023-04-29T09:55:13;101575.88;;;13.80;52.67
20656;BME280;10487;53.320;8.672;2023-04-29T09:58:27;101578.16;;;13.97;52.85
20656;BME280;10487;53.320;8.672;2023-04-29T10:01:30;101584.66;;;14.05;52.45
20656;BME280;10487;53.320;8.672;2023-04-29T10:04:34;101595.91;;;14.10;52.13
20656;BME280;10487;53.320;8.672;2023-04-29T10:07:39;101589.00;;;14.19;52.20
20656;BME280;10487;53.320;8.672;2023-04-29T10:10:41;101592.19;;;14.24;52.01
20656;BME280;10487;53.320;8.672;2023-04-29T10:13:44;101591.47;;;14.33;51.93
20656;BME280;10487;53.320;8.672;2023-04-29T10:17:01;101596.94;;;14.44;51.97
20656;BME280;10487;53.320;8.672;2023-04-29T10:20:04;101594.38;;;14.54;51.70
20656;BME280;10487;53.320;8.672;2023-04-29T10:23:07;101603.31;;;14.65;51.72
20656;BME280;10487;53.320;8.672;2023-04-29T10:26:11;101604.09;;;14.78;51.68
20656;BME280;10487;53.320;8.672;2023-04-29T10:29:14;101606.19;;;14.86;51.19
20656;BME280;10487;53.320;8.672;2023-04-29T10:32:18;101610.09;;;14.93;51.35
20656;BME280;10487;53.320;8.672;2023-04-29T10:35:22;101618.91;;;15.06;51.23
20656;BME280;10487;53.320;8.672;2023-04-29T10:38:46;101609.72;;;15.20;51.18
20656;BME280;10487;53.320;8.672;2023-04-29T10:41:51;101615.41;;;15.28;51.24
20656;BME280;10487;53.320;8.672;2023-04-29T10:45:30;101613.81;;;15.36;50.86
20656;BME280;10487;53.320;8.672;2023-04-29T10:48:33;101626.50;;;15.45;50.67
20656;BME280;10487;53.320;8.672;2023-04-29T10:54:40;101635.41;;;15.57;50.58
20656;BME280;10487;53.320;8.672;2023-04-29T10:57:43;101639.59;;;15.61;50.37
20656;BME280;10487;53.320;8.672;2023-04-29T11:00:45;101621.34;;;15.64;50.55
20656;BME280;10487;53.320;8.672;2023-04-29T11:03:51;101622.06;;;15.66;50.44
20656;BME280;10487;53.320;8.672;2023-04-29T11:06:59;101628.94;;;15.71;50.31
20656;BME280;10487;53.320;8.672;2023-04-29T11:10:01;101627.34;;;15.68;50.14
20656;BME280;10487;53.320;8.672;2023-04-29T11:16:25;101624.41;;;15.71;49.93
20656;BME280;10487;53.320;8.672;2023-04-29T11:19:34;101636.75;;;15.74;49.97
20656;BME280;10487;53.320;8.672;2023-04-29T11:22:36;101627.09;;;15.71;49.94
20656;BME280;10487;53.320;8.672;2023-04-29T11:25:38;101645.81;;;15.73;49.83
20656;BME280;10487;53.320;8.672;2023-04-29T11:28:40;101638.84;;;15.70;49.81
20656;BME280;10487;53.320;8.672;2023-04-29T11:31:42;101637.88;;;15.71;49.71
20656;BME280;10487;53.320;8.672;2023-04-29T11:34:44;101638.47;;;15.75;49.73
20656;BME280;10487;53.320;8.672;2023-04-29T11:37:46;101636.88;;;15.83;49.72
20656;BME280;10487;53.320;8.672;2023-04-29T11:40:48;101642.09;;;15.85;49.39
20656;BME280;10487;53.320;8.672;2023-04-29T11:43:59;101645.03;;;15.82;49.41
20656;BME280;10487;53.320;8.672;2023-04-29T11:47:02;101660.09;;;15.84;49.51
20656;BME280;10487;53.320;8.672;2023-04-29T11:50:06;101653.50;;;15.88;49.23
20656;BME280;10487;53.320;8.672;2023-04-29T11:53:09;101656.91;;;15.90;49.27
20656;BME280;10487;53.320;8.672;2023-04-29T11:56:11;101647.50;;;15.85;49.33
20656;BME280;10487;53.320;8.672;2023-04-29T11:59:12;101648.97;;;15.89;49.39
20656;BME280;10487;53.320;8.672;2023-04-29T12:02:14;101641.25;;;15.95;49.14
20656;BME280;10487;53.320;8.672;2023-04-29T12:05:16;101651.16;;;15.95;49.04
20656;BME280;10487;53.320;8.672;2023-04-29T12:08:25;101657.97;;;15.99;49.30
20656;BME280;10487;53.320;8.672;2023-04-29T12:11:26;101660.66;;;15.99;48.92
20656;BME280;10487;53.320;8.672;2023-04-29T12:14:29;101663.50;;;15.97;48.89
20656;BME280;10487;53.320;8.672;2023-04-29T12:17:31;101674.63;;;15.93;48.94
20656;BME280;10487;53.320;8.672;2023-04-29T12:20:33;101674.88;;;15.90;48.98
20656;BME280;10487;53.320;8.672;2023-04-29T12:23:35;101674.88;;;15.90;48.83
20656;BME280;10487;53.320;8.672;2023-04-29T12:26:39;101682.09;;;15.89;48.83
20656;BME280;10487;53.320;8.672;2023-04-29T12:29:40;101684.44;;;15.83;48.72
20656;BME280;10487;53.320;8.672;2023-04-29T12:32:43;101686.41;;;15.81;48.77
20656;BME280;10487;53.320;8.672;2023-04-29T12:35:45;101688.09;;;15.82;48.70
20656;BME280;10487;53.320;8.672;2023-04-29T12:38:47;101691.06;;;15.79;48.64
20656;BME280;10487;53.320;8.672;2023-04-29T12:41:54;101689.19;;;15.79;48.56
20656;BME280;10487;53.320;8.672;2023-04-29T12:44:56;101692.03;;;15.78;48.55
20656;BME280;10487;53.320;8.672;2023-04-29T12:47:59;101694.97;;;15.75;48.37
20656;BME280;10487;53.320;8.672;2023-04-29T12:51:02;101691.78;;;15.70;48.36
20656;BME280;10487;53.320;8.672;2023-04-29T12:54:03;101696.81;;;15.63;48.28
20656;BME280;10487;53.320;8.672;2023-04-29T12:57:10;101697.66;;;15.52;48.25
20656;BME280;10487;53.320;8.672;2023-04-29T13:00:12;101700.09;;;15.44;48.20
20656;BME280;10487;53.320;8.672;2023-04-29T13:03:15;101691.31;;;15.42;48.34
20656;BME280;10487;53.320;8.672;2023-04-29T13:06:19;101695.09;;;15.40;48.17
20656;BME280;10487;53.320;8.672;2023-04-29T13:09:20;101700.47;;;15.40;48.18
20656;BME280;10487;53.320;8.672;2023-04-29T13:12:22;101697.78;;;15.40;48.07
20656;BME280;10487;53.320;8.672;2023-04-29T13:15:24;101710.72;;;15.35;47.99
20656;BME280;10487;53.320;8.672;2023-04-29T13:18:26;101704.75;;;15.31;48.19
20656;BME280;10487;53.320;8.672;2023-04-29T13:21:28;101712.09;;;15.29;47.91
20656;BME280;10487;53.320;8.672;2023-04-29T13:24:30;101705.41;;;15.22;47.72
20656;BME280;10487;53.320;8.672;2023-04-29T13:27:33;101705.69;;;15.19;47.70
20656;BME280;10487;53.320;8.672;2023-04-29T13:30:35;101712.16;;;15.17;47.77
20656;BME280;10487;53.320;8.672;2023-04-29T13:33:37;101709.78;;;15.12;47.76
20656;BME280;10487;53.320;8.672;2023-04-29T13:36:40;101711.75;;;14.99;47.60
20656;BME280;10487;53.320;8.672;2023-04-29T13:39:42;101707.81;;;14.92;47.88
20656;BME280;10487;53.320;8.672;2023-04-29T13:42:48;101712.78;;;14.85;47.54
20656;BME280;10487;53.320;8.672;2023-04-29T13:45:59;101718.28;;;14.84;47.70
20656;BME280;10487;53.320;8.672;2023-04-29T13:49:01;101718.16;;;14.85;47.66
20656;BME280;10487;53.320;8.672;2023-04-29T13:52:24;101725.25;;;14.86;47.48
20656;BME280;10487;53.320;8.672;2023-04-29T13:55:45;101724.97;;;14.78;47.52
20656;BME280;10487;53.320;8.672;2023-04-29T13:59:07;101726.03;;;14.65;47.43
20656;BME280;10487;53.320;8.672;2023-04-29T14:02:28;101732.94;;;14.56;47.43
20656;BME280;10487;53.320;8.672;2023-04-29T14:05:30;101724.50;;;14.50;47.33
20656;BME280;10487;53.320;8.672;2023-04-29T14:08:32;101735.47;;;14.47;47.26
20656;BME280;10487;53.320;8.672;2023-04-29T14:11:34;101734.72;;;14.45;47.41
20656;BME280;10487;53.320;8.672;2023-04-29T14:14:37;101736.78;;;14.41;47.53
20656;BME280;10487;53.320;8.672;2023-04-29T14:17:38;101750.19;;;14.41;47.26
20656;BME280;10487;53.320;8.672;2023-04-29T14:20:40;101751.47;;;14.35;47.24
20656;BME280;10487;53.320;8.672;2023-04-29T14:23:42;101758.38;;;14.27;47.50
20656;BME280;10487;53.320;8.672;2023-04-29T14:26:44;101756.13;;;14.21;47.23
20656;BME280;10487;53.320;8.672;2023-04-29T14:29:45;101760.13;;;14.15;47.54
20656;BME280;10487;53.320;8.672;2023-04-29T14:32:47;101758.84;;;14.08;47.61
20656;BME280;10487;53.320;8.672;2023-04-29T14:35:48;101767.81;;;13.96;47.33
20656;BME280;10487;53.320;8.672;2023-04-29T14:38:50;101769.00;;;13.80;47.29
20656;BME280;10487;53.320;8.672;2023-04-29T14:41:52;101768.69;;;13.71;47.55
20656;BME280;10487;53.320;8.672;2023-04-29T14:44:53;101768.16;;;13.66;47.58
20656;BME280;10487;53.320;8.672;2023-04-29T14:47:55;101771.28;;;13.60;47.76
20656;BME280;10487;53.320;8.672;2023-04-29T14:50:57;101772.56;;;13.55;47.67
20656;BME280;10487;53.320;8.672;2023-04-29T14:53:58;101784.88;;;13.45;47.70
20656;BME280;10487;53.320;8.672;2023-04-29T14:57:00;101772.13;;;13.36;47.49
20656;BME280;10487;53.320;8.672;2023-04-29T15:00:02;101782.69;;;13.25;47.56
20656;BME280;10487;53.320;8.672;2023-04-29T15:03:04;101781.81;;;13.11;47.66
20656;BME280;10487;53.320;8.672;2023-04-29T15:06:06;101789.72;;;13.00;47.61
20656;BME280;10487;53.320;8.672;2023-04-29T15:09:08;101792.25;;;12.89;47.96
20656;BME280;10487;53.320;8.672;2023-04-29T15:12:10;101795.44;;;12.82;47.98
20656;BME280;10487;53.320;8.672;2023-04-29T15:15:11;101803.25;;;12.72;47.76
20656;BME280;10487;53.320;8.672;2023-04-29T15:18:13;101805.22;;;12.56;47.84
20656;BME280;10487;53.320;8.672;2023-04-29T15:21:15;101805.22;;;12.42;48.03
20656;BME280;10487;53.320;8.672;2023-04-29T15:24:17;101805.06;;;12.31;48.14
20656;BME280;10487;53.320;8.672;2023-04-29T15:27:19;101813.88;;;12.19;48.10
20656;BME280;10487;53.320;8.672;2023-04-29T15:30:21;101814.53;;;12.08;48.04
20656;BME280;10487;53.320;8.672;2023-04-29T15:33:23;101812.53;;;11.98;48.22
20656;BME280;10487;53.320;8.672;2023-04-29T15:36:29;101816.56;;;11.91;47.97
20656;BME280;10487;53.320;8.672;2023-04-29T15:39:32;101810.81;;;11.82;48.37
20656;BME280;10487;53.320;8.672;2023-04-29T15:42:34;101823.63;;;11.77;48.14
20656;BME280;10487;53.320;8.672;2023-04-29T15:45:35;101825.72;;;11.72;48.17
20656;BME280;10487;53.320;8.672;2023-04-29T15:48:37;101817.22;;;11.66;48.04
20656;BME280;10487;53.320;8.672;2023-04-29T15:51:39;101817.50;;;11.61;48.28
20656;BME280;10487;53.320;8.672;2023-04-29T15:54:40;101832.09;;;11.56;48.42
20656;BME280;10487;53.320;8.672;2023-04-29T15:57:42;101828.91;;;11.49;48.42
20656;BME280;10487;53.320;8.672;2023-04-29T16:00:44;101832.69;;;11.45;48.19
20656;BME280;10487;53.320;8.672;2023-04-29T16:03:45;101832.13;;;11.40;48.17
20656;BME280;10487;53.320;8.672;2023-04-29T16:06:47;101827.81;;;11.38;48.30
20656;BME280;10487;53.320;8.672;2023-04-29T16:09:49;101828.09;;;11.33;48.24
20656;BME280;10487;53.320;8.672;2023-04-29T16:12:50;101838.19;;;11.28;48.07
20656;BME280;10487;53.320;8.672;2023-04-29T16:15:53;101831.50;;;11.21;48.53
20656;BME280;10487;53.320;8.672;2023-04-29T16:18:55;101837.03;;;11.18;48.48
20656;BME280;10487;53.320;8.672;2023-04-29T16:21:57;101839.69;;;11.18;48.35